sensor_id;sensor_type;location;lat;lon;timestamp;pressure;altitude;pressure_sealevel;temperature;humidity
40994;BME280;26722;43.212;27.932;2023-02-28T00:00:10;55192.09;;;-146.72;65.21
40994;BME280;26722;43.212;27.932;2023-02-28T00:02:37;55179.44;;;-146.72;65.14
40994;BME280;26722;43.212;27.932;2023-02-28T00:05:03;55166.75;;;-146.72;65.03
40994;BME280;26722;43.212;27.932;2023-02-28T00:07:30;55185.75;;;-146.72;65.79
40994;BME280;26722;43.212;27.932;2023-02-28T00:10:03;55192.09;;;-146.72;66.08
40994;BME280;26722;43.212;27.932;2023-02-28T00:12:29;55175.22;;;-146.72;66.02
40994;BME280;26722;43.212;27.932;2023-02-28T00:14:54;55196.31;;;-146.72;66.22
40994;BME280;26722;43.212;27.932;2023-02-28T00:17:20;55200.53;;;-146.72;65.97
40994;BME280;26722;43.212;27.932;2023-02-28T00:19:49;55187.88;;;-146.72;65.92
40994;BME280;26722;43.212;27.932;2023-02-28T00:22:16;55204.75;;;-146.72;65.68
40994;BME280;26722;43.212;27.932;2023-02-28T00:24:42;55183.66;;;-146.72;65.02
40994;BME280;26722;43.212;27.932;2023-02-28T00:27:07;55162.53;;;-146.72;65.09
40994;BME280;26722;43.212;27.932;2023-02-28T00:29:33;55181.53;;;-146.72;65.45
40994;BME280;26722;43.212;27.932;2023-02-28T00:31:58;55196.31;;;-146.72;65.36
40994;BME280;26722;43.212;27.932;2023-02-28T00:34:24;55196.31;;;-146.72;65.65
40994;BME280;26722;43.212;27.932;2023-02-28T00:36:49;55192.09;;;-146.72;66.02
40994;BME280;26722;43.212;27.932;2023-02-28T00:39:15;55164.66;;;-146.72;66.26
40994;BME280;26722;43.212;27.932;2023-02-28T00:41:41;55200.53;;;-146.72;66.45
40994;BME280;26722;43.212;27.932;2023-02-28T00:44:06;55183.66;;;-146.72;66.37
40994;BME280;26722;43.212;27.932;2023-02-28T00:46:32;55209.00;;;-146.72;66.59
40994;BME280;26722;43.212;27.932;2023-02-28T00:48:57;55185.75;;;-146.72;66.45
40994;BME280;26722;43.212;27.932;2023-02-28T00:51:22;55202.66;;;-146.72;66.04
40994;BME280;26722;43.212;27.932;2023-02-28T00:53:48;55170.97;;;-146.72;65.79
40994;BME280;26722;43.212;27.932;2023-02-28T00:56:13;55183.66;;;-146.72;65.30
40994;BME280;26722;43.212;27.932;2023-02-28T00:58:39;55183.66;;;-146.72;65.23
40994;BME280;26722;43.212;27.932;2023-02-28T01:01:05;55198.44;;;-146.72;65.30
40994;BME280;26722;43.212;27.932;2023-02-28T01:03:30;55200.53;;;-146.72;65.15
40994;BME280;26722;43.212;27.932;2023-02-28T01:05:56;55187.88;;;-146.72;65.37
40994;BME280;26722;43.212;27.932;2023-02-28T01:08:21;55196.31;;;-146.72;65.37
40994;BME280;26722;43.212;27.932;2023-02-28T01:10:47;55185.75;;;-146.72;65.59
40994;BME280;26722;43.212;27.932;2023-02-28T01:13:13;55202.66;;;-146.72;65.85
40994;BME280;26722;43.212;27.932;2023-02-28T01:15:50;55179.44;;;-146.72;65.76
40994;BME280;26722;43.212;27.932;2023-02-28T01:18:19;55187.88;;;-146.72;65.59
40994;BME280;26722;43.212;27.932;2023-02-28T01:20:45;55204.75;;;-146.72;65.70
40994;BME280;26722;43.212;27.932;2023-02-28T01:23:11;55170.97;;;-146.72;65.50
40994;BME280;26722;43.212;27.932;2023-02-28T01:25:36;55181.53;;;-146.72;64.39
40994;BME280;26722;43.212;27.932;2023-02-28T01:28:02;55154.09;;;-146.72;63.88
40994;BME280;26722;43.212;27.932;2023-02-28T01:30:28;55164.66;;;-146.72;63.44
40994;BME280;26722;43.212;27.932;2023-02-28T01:32:53;55175.22;;;-146.72;63.65
40994;BME280;26722;43.212;27.932;2023-02-28T01:35:19;55198.44;;;-146.72;63.49
40994;BME280;26722;43.212;27.932;2023-02-28T01:37:45;55177.31;;;-146.72;63.08
40994;BME280;26722;43.212;27.932;2023-02-28T01:40:11;55177.31;;;-146.72;63.12
40994;BME280;26722;43.212;27.932;2023-02-28T01:42:37;55175.22;;;-146.72;63.60
40994;BME280;26722;43.212;27.932;2023-02-28T01:45:14;55192.09;;;-146.72;63.98
40994;BME280;26722;43.212;27.932;2023-02-28T01:47:44;55187.88;;;-146.72;64.38
40994;BME280;26722;43.212;27.932;2023-02-28T01:50:15;55200.53;;;-146.72;65.05
40994;BME280;26722;43.212;27.932;2023-02-28T01:52:42;55192.09;;;-146.72;65.40
40994;BME280;26722;43.212;27.932;2023-02-28T01:55:10;55194.22;;;-146.72;65.53
40994;BME280;26722;43.212;27.932;2023-02-28T01:57:45;55185.75;;;-146.72;65.09
40994;BME280;26722;43.212;27.932;2023-02-28T02:00:18;55206.88;;;-146.72;65.87
40994;BME280;26722;43.212;27.932;2023-02-28T02:02:47;55211.09;;;-146.72;66.25
40994;BME280;26722;43.212;27.932;2023-02-28T02:05:22;55213.22;;;-146.72;65.91
40994;BME280;26722;43.212;27.932;2023-02-28T02:07:51;55187.88;;;-146.72;65.76
40994;BME280;26722;43.212;27.932;2023-02-28T02:10:27;55213.22;;;-146.72;65.87
40994;BME280;26722;43.212;27.932;2023-02-28T02:15:37;55194.22;;;-146.72;66.06
40994;BME280;26722;43.212;27.932;2023-02-28T02:35:23;55200.53;;;-146.72;64.22
40994;BME280;26722;43.212;27.932;2023-02-28T02:38:13;55225.88;;;-146.72;64.40
40994;BME280;26722;43.212;27.932;2023-02-28T02:40:58;55225.88;;;-146.72;64.92
40994;BME280;26722;43.212;27.932;2023-02-28T02:43:33;55190.00;;;-146.72;65.01
40994;BME280;26722;43.212;27.932;2023-02-28T02:46:14;55185.75;;;-146.72;64.52
40994;BME280;26722;43.212;27.932;2023-02-28T02:48:42;55192.09;;;-146.72;64.42
40994;BME280;26722;43.212;27.932;2023-02-28T02:51:20;55192.09;;;-146.72;64.89
40994;BME280;26722;43.212;27.932;2023-02-28T02:53:50;55200.53;;;-146.72;64.65
40994;BME280;26722;43.212;27.932;2023-02-28T02:56:19;55204.75;;;-146.72;64.36
40994;BME280;26722;43.212;27.932;2023-02-28T02:58:49;55183.66;;;-146.72;62.52
40994;BME280;26722;43.212;27.932;2023-02-28T03:01:21;55192.09;;;-146.72;62.84
40994;BME280;26722;43.212;27.932;2023-02-28T03:03:57;55190.00;;;-146.72;62.55
40994;BME280;26722;43.212;27.932;2023-02-28T03:06:25;55204.75;;;-146.72;62.49
40994;BME280;26722;43.212;27.932;2023-02-28T03:08:51;55190.00;;;-146.72;62.42
40994;BME280;26722;43.212;27.932;2023-02-28T03:11:16;55179.44;;;-146.72;62.62
40994;BME280;26722;43.212;27.932;2023-02-28T03:14:14;55179.44;;;-146.72;62.43
40994;BME280;26722;43.212;27.932;2023-02-28T03:19:55;55211.09;;;-146.72;63.00
40994;BME280;26722;43.212;27.932;2023-02-28T03:22:45;55200.53;;;-146.72;63.43
40994;BME280;26722;43.212;27.932;2023-02-28T03:28:42;55200.53;;;-146.72;63.74
40994;BME280;26722;43.212;27.932;2023-02-28T03:31:37;55200.53;;;-146.72;64.24
40994;BME280;26722;43.212;27.932;2023-02-28T03:34:09;55236.44;;;-146.72;65.05
40994;BME280;26722;43.212;27.932;2023-02-28T03:36:38;55217.44;;;-146.72;65.84
40994;BME280;26722;43.212;27.932;2023-02-28T03:39:14;55215.31;;;-146.72;66.49
40994;BME280;26722;43.212;27.932;2023-02-28T03:41:53;55217.44;;;-146.72;67.02
40994;BME280;26722;43.212;27.932;2023-02-28T03:44:27;55238.53;;;-146.72;67.37
40994;BME280;26722;43.212;27.932;2023-02-28T03:47:00;55242.78;;;-146.72;68.09
40994;BME280;26722;43.212;27.932;2023-02-28T03:49:34;55221.66;;;-146.72;68.31
40994;BME280;26722;43.212;27.932;2023-02-28T03:52:03;55230.09;;;-146.72;68.39
40994;BME280;26722;43.212;27.932;2023-02-28T03:54:34;55221.66;;;-146.72;67.82
40994;BME280;26722;43.212;27.932;2023-02-28T03:57:18;55223.78;;;-146.72;67.48
40994;BME280;26722;43.212;27.932;2023-02-28T03:59:52;55200.53;;;-146.72;66.89
40994;BME280;26722;43.212;27.932;2023-02-28T04:02:21;55211.09;;;-146.72;66.36
40994;BME280;26722;43.212;27.932;2023-02-28T04:04:47;55202.66;;;-146.72;66.31
40994;BME280;26722;43.212;27.932;2023-02-28T04:07:14;55209.00;;;-146.72;65.89
40994;BME280;26722;43.212;27.932;2023-02-28T04:09:39;55196.31;;;-146.72;65.80
40994;BME280;26722;43.212;27.932;2023-02-28T04:12:05;55236.44;;;-146.72;65.27
40994;BME280;26722;43.212;27.932;2023-02-28T04:14:31;55213.22;;;-146.72;65.26
40994;BME280;26722;43.212;27.932;2023-02-28T04:16:56;55217.44;;;-146.72;65.46
40994;BME280;26722;43.212;27.932;2023-02-28T04:19:22;55215.31;;;-146.72;65.60
40994;BME280;26722;43.212;27.932;2023-02-28T04:21:49;55213.22;;;-146.72;65.52
40994;BME280;26722;43.212;27.932;2023-02-28T04:24:21;55221.66;;;-146.72;65.86
40994;BME280;26722;43.212;27.932;2023-02-28T04:26:52;55209.00;;;-146.72;65.79
40994;BME280;26722;43.212;27.932;2023-02-28T04:29:23;55217.44;;;-146.72;65.68
40994;BME280;26722;43.212;27.932;2023-02-28T04:31:49;55230.09;;;-146.72;65.87
40994;BME280;26722;43.212;27.932;2023-02-28T04:34:14;55196.31;;;-146.72;66.00
40994;BME280;26722;43.212;27.932;2023-02-28T04:36:40;55211.09;;;-146.72;66.33
40994;BME280;26722;43.212;27.932;2023-02-28T04:39:06;55187.88;;;-146.72;65.52
40994;BME280;26722;43.212;27.932;2023-02-28T04:41:32;55213.22;;;-146.72;64.73
40994;BME280;26722;43.212;27.932;2023-02-28T04:43:57;55202.66;;;-146.72;65.31
40994;BME280;26722;43.212;27.932;2023-02-28T04:46:22;55202.66;;;-146.72;65.83
40994;BME280;26722;43.212;27.932;2023-02-28T04:48:48;55221.66;;;-146.72;66.13
40994;BME280;26722;43.212;27.932;2023-02-28T04:51:15;55225.88;;;-146.72;66.32
40994;BME280;26722;43.212;27.932;2023-02-28T04:53:42;55217.44;;;-146.72;66.38
40994;BME280;26722;43.212;27.932;2023-02-28T04:56:11;55225.88;;;-146.72;66.38
40994;BME280;26722;43.212;27.932;2023-02-28T04:58:37;55223.78;;;-146.72;66.78
40994;BME280;26722;43.212;27.932;2023-02-28T05:01:28;55200.53;;;-146.72;66.67
40994;BME280;26722;43.212;27.932;2023-02-28T05:03:54;55211.09;;;-146.72;66.38
40994;BME280;26722;43.212;27.932;2023-02-28T05:06:21;55200.53;;;-146.72;66.46
40994;BME280;26722;43.212;27.932;2023-02-28T05:08:48;55213.22;;;-146.72;66.45
40994;BME280;26722;43.212;27.932;2023-02-28T05:11:20;55217.44;;;-146.72;66.58
40994;BME280;26722;43.212;27.932;2023-02-28T05:13:47;55217.44;;;-146.72;66.51
40994;BME280;26722;43.212;27.932;2023-02-28T05:16:12;55209.00;;;-146.72;66.50
40994;BME280;26722;43.212;27.932;2023-02-28T05:18:38;55217.44;;;-146.72;67.29
40994;BME280;26722;43.212;27.932;2023-02-28T05:21:04;55194.22;;;-146.72;67.89
40994;BME280;26722;43.212;27.932;2023-02-28T05:23:30;55228.00;;;-146.72;67.90
40994;BME280;26722;43.212;27.932;2023-02-28T05:25:56;55221.66;;;-146.72;68.44
40994;BME280;26722;43.212;27.932;2023-02-28T05:28:21;55213.22;;;-146.72;68.30
40994;BME280;26722;43.212;27.932;2023-02-28T05:30:47;55217.44;;;-146.72;67.83
40994;BME280;26722;43.212;27.932;2023-02-28T05:33:13;55223.78;;;-146.72;67.66
40994;BME280;26722;43.212;27.932;2023-02-28T05:35:40;55209.00;;;-146.72;67.83
40994;BME280;26722;43.212;27.932;2023-02-28T05:38:06;55198.44;;;-146.72;67.95
40994;BME280;26722;43.212;27.932;2023-02-28T05:40:32;55200.53;;;-146.72;68.15
40994;BME280;26722;43.212;27.932;2023-02-28T05:42:57;55217.44;;;-146.72;68.12
40994;BME280;26722;43.212;27.932;2023-02-28T05:45:22;55209.00;;;-146.72;67.42
40994;BME280;26722;43.212;27.932;2023-02-28T05:47:48;55211.09;;;-146.72;67.38
40994;BME280;26722;43.212;27.932;2023-02-28T05:50:14;55196.31;;;-146.72;67.04
40994;BME280;26722;43.212;27.932;2023-02-28T05:52:39;55196.31;;;-146.72;67.03
40994;BME280;26722;43.212;27.932;2023-02-28T05:55:06;55200.53;;;-146.72;66.93
40994;BME280;26722;43.212;27.932;2023-02-28T05:57:31;55204.75;;;-146.72;66.74
40994;BME280;26722;43.212;27.932;2023-02-28T05:59:57;55198.44;;;-146.72;66.79
40994;BME280;26722;43.212;27.932;2023-02-28T06:02:22;55196.31;;;-146.72;67.25
40994;BME280;26722;43.212;27.932;2023-02-28T06:04:48;55217.44;;;-146.72;68.02
40994;BME280;26722;43.212;27.932;2023-02-28T06:07:13;55219.53;;;-146.72;68.65
40994;BME280;26722;43.212;27.932;2023-02-28T06:09:39;55221.66;;;-146.72;69.42
40994;BME280;26722;43.212;27.932;2023-02-28T06:12:06;55209.00;;;-146.72;69.97
40994;BME280;26722;43.212;27.932;2023-02-28T06:14:33;55215.31;;;-146.72;70.13
40994;BME280;26722;43.212;27.932;2023-02-28T06:17:00;55204.75;;;-146.72;69.46
40994;BME280;26722;43.212;27.932;2023-02-28T06:19:25;55202.66;;;-146.72;70.07
40994;BME280;26722;43.212;27.932;2023-02-28T06:21:52;55204.75;;;-146.72;70.95
40994;BME280;26722;43.212;27.932;2023-02-28T06:24:21;55200.53;;;-146.72;70.81
40994;BME280;26722;43.212;27.932;2023-02-28T06:26:48;55221.66;;;-146.72;71.06
40994;BME280;26722;43.212;27.932;2023-02-28T06:29:14;55196.31;;;-146.72;70.44
40994;BME280;26722;43.212;27.932;2023-02-28T06:31:42;55209.00;;;-146.72;69.74
40994;BME280;26722;43.212;27.932;2023-02-28T06:34:09;55200.53;;;-146.72;69.27
40994;BME280;26722;43.212;27.932;2023-02-28T06:36:37;55196.31;;;-146.72;67.10
40994;BME280;26722;43.212;27.932;2023-02-28T06:39:02;55196.31;;;-146.72;66.74
40994;BME280;26722;43.212;27.932;2023-02-28T06:41:28;55183.66;;;-146.72;66.63
40994;BME280;26722;43.212;27.932;2023-02-28T06:43:53;55183.66;;;-146.72;66.87
40994;BME280;26722;43.212;27.932;2023-02-28T06:46:19;55177.31;;;-146.72;67.18
40994;BME280;26722;43.212;27.932;2023-02-28T06:48:45;55173.09;;;-146.72;67.08
40994;BME280;26722;43.212;27.932;2023-02-28T06:51:17;55183.66;;;-146.72;66.97
40994;BME280;26722;43.212;27.932;2023-02-28T06:53:43;55192.09;;;-146.72;66.85
40994;BME280;26722;43.212;27.932;2023-02-28T06:56:13;55175.22;;;-146.72;65.61
40994;BME280;26722;43.212;27.932;2023-02-28T06:58:39;55181.53;;;-146.72;66.15
40994;BME280;26722;43.212;27.932;2023-02-28T07:01:06;55162.53;;;-146.72;66.59
40994;BME280;26722;43.212;27.932;2023-02-28T07:03:32;55198.44;;;-146.72;65.33
40994;BME280;26722;43.212;27.932;2023-02-28T07:05:57;55179.44;;;-146.72;65.62
40994;BME280;26722;43.212;27.932;2023-02-28T07:08:24;55194.22;;;-146.72;65.91
40994;BME280;26722;43.212;27.932;2023-02-28T07:10:55;55183.66;;;-146.72;66.00
40994;BME280;26722;43.212;27.932;2023-02-28T07:13:22;55206.88;;;-146.72;66.29
40994;BME280;26722;43.212;27.932;2023-02-28T07:16:03;55190.00;;;-146.72;66.50
40994;BME280;26722;43.212;27.932;2023-02-28T07:18:29;55192.09;;;-146.72;66.50
40994;BME280;26722;43.212;27.932;2023-02-28T07:20:55;55173.09;;;-146.72;66.88
40994;BME280;26722;43.212;27.932;2023-02-28T07:23:21;55183.66;;;-146.72;64.99
40994;BME280;26722;43.212;27.932;2023-02-28T07:25:46;55170.97;;;-146.72;64.94
40994;BME280;26722;43.212;27.932;2023-02-28T07:28:13;55204.75;;;-146.72;64.88
40994;BME280;26722;43.212;27.932;2023-02-28T07:30:39;55200.53;;;-146.72;65.69
40994;BME280;26722;43.212;27.932;2023-02-28T07:33:05;55198.44;;;-146.72;66.10
40994;BME280;26722;43.212;27.932;2023-02-28T07:35:31;55198.44;;;-146.72;66.48
40994;BME280;26722;43.212;27.932;2023-02-28T07:37:59;55221.66;;;-146.72;67.07
40994;BME280;26722;43.212;27.932;2023-02-28T07:40:25;55206.88;;;-146.72;67.84
40994;BME280;26722;43.212;27.932;2023-02-28T07:42:51;55223.78;;;-146.72;68.26
40994;BME280;26722;43.212;27.932;2023-02-28T07:45:16;55200.53;;;-146.72;68.47
40994;BME280;26722;43.212;27.932;2023-02-28T07:47:43;55217.44;;;-146.72;68.13
40994;BME280;26722;43.212;27.932;2023-02-28T07:50:11;55225.88;;;-146.72;67.69
40994;BME280;26722;43.212;27.932;2023-02-28T07:52:37;55194.22;;;-146.72;67.91
40994;BME280;26722;43.212;27.932;2023-02-28T07:55:07;55187.88;;;-146.72;68.21
40994;BME280;26722;43.212;27.932;2023-02-28T07:57:34;55194.22;;;-146.72;67.73
40994;BME280;26722;43.212;27.932;2023-02-28T07:59:59;55204.75;;;-146.72;67.81
40994;BME280;26722;43.212;27.932;2023-02-28T08:02:25;55198.44;;;-146.72;67.41
40994;BME280;26722;43.212;27.932;2023-02-28T08:04:50;55204.75;;;-146.72;67.21
40994;BME280;26722;43.212;27.932;2023-02-28T08:07:17;55196.31;;;-146.72;66.56
40994;BME280;26722;43.212;27.932;2023-02-28T08:09:43;55204.75;;;-146.72;66.60
40994;BME280;26722;43.212;27.932;2023-02-28T08:12:09;55209.00;;;-146.72;66.77
40994;BME280;26722;43.212;27.932;2023-02-28T08:14:35;55213.22;;;-146.72;66.97
40994;BME280;26722;43.212;27.932;2023-02-28T08:17:01;55217.44;;;-146.72;66.93
40994;BME280;26722;43.212;27.932;2023-02-28T08:19:27;55215.31;;;-146.72;66.66
40994;BME280;26722;43.212;27.932;2023-02-28T08:21:53;55209.00;;;-146.72;67.09
40994;BME280;26722;43.212;27.932;2023-02-28T08:24:18;55202.66;;;-146.72;66.55
40994;BME280;26722;43.212;27.932;2023-02-28T08:26:44;55206.88;;;-146.72;66.15
40994;BME280;26722;43.212;27.932;2023-02-28T08:29:09;55183.66;;;-146.72;66.85
40994;BME280;26722;43.212;27.932;2023-02-28T08:31:35;55221.66;;;-146.72;66.56
40994;BME280;26722;43.212;27.932;2023-02-28T08:34:12;55187.88;;;-146.72;67.47
40994;BME280;26722;43.212;27.932;2023-02-28T08:36:38;55209.00;;;-146.72;67.17
40994;BME280;26722;43.212;27.932;2023-02-28T08:39:04;55221.66;;;-146.72;67.37
40994;BME280;26722;43.212;27.932;2023-02-28T08:41:30;55183.66;;;-146.72;67.33
40994;BME280;26722;43.212;27.932;2023-02-28T08:43:56;55192.09;;;-146.72;66.45
40994;BME280;26722;43.212;27.932;2023-02-28T08:46:22;55213.22;;;-146.72;66.45
40994;BME280;26722;43.212;27.932;2023-02-28T08:48:51;55204.75;;;-146.72;66.70
40994;BME280;26722;43.212;27.932;2023-02-28T08:51:18;55196.31;;;-146.72;66.16
40994;BME280;26722;43.212;27.932;2023-02-28T08:53:46;55209.00;;;-146.72;66.30
40994;BME280;26722;43.212;27.932;2023-02-28T08:56:15;55209.00;;;-146.72;66.06
40994;BME280;26722;43.212;27.932;2023-02-28T08:58:42;55209.00;;;-146.72;65.89
40994;BME280;26722;43.212;27.932;2023-02-28T09:01:14;55187.88;;;-146.72;65.84
40994;BME280;26722;43.212;27.932;2023-02-28T09:03:40;55190.00;;;-146.72;66.04
40994;BME280;26722;43.212;27.932;2023-02-28T09:06:12;55177.31;;;-146.72;65.55
40994;BME280;26722;43.212;27.932;2023-02-28T09:08:38;55175.22;;;-146.72;64.33
40994;BME280;26722;43.212;27.932;2023-02-28T09:11:04;55166.75;;;-146.72;63.71
40994;BME280;26722;43.212;27.932;2023-02-28T09:13:31;55166.75;;;-146.72;63.22
40994;BME280;26722;43.212;27.932;2023-02-28T09:16:02;55185.75;;;-146.72;62.19
40994;BME280;26722;43.212;27.932;2023-02-28T09:18:28;55179.44;;;-146.72;62.29
40994;BME280;26722;43.212;27.932;2023-02-28T09:20:54;55183.66;;;-146.72;62.95
40994;BME280;26722;43.212;27.932;2023-02-28T09:23:20;55181.53;;;-146.72;62.46
40994;BME280;26722;43.212;27.932;2023-02-28T09:25:54;55175.22;;;-146.72;61.95
40994;BME280;26722;43.212;27.932;2023-02-28T09:28:20;55198.44;;;-146.72;62.39
40994;BME280;26722;43.212;27.932;2023-02-28T09:30:51;55190.00;;;-146.72;63.13
40994;BME280;26722;43.212;27.932;2023-02-28T09:33:18;55196.31;;;-146.72;62.26
40994;BME280;26722;43.212;27.932;2023-02-28T09:35:49;55185.75;;;-146.72;62.83
40994;BME280;26722;43.212;27.932;2023-02-28T09:38:15;55183.66;;;-146.72;62.50
40994;BME280;26722;43.212;27.932;2023-02-28T09:40:50;55168.88;;;-146.72;62.70
40994;BME280;26722;43.212;27.932;2023-02-28T09:43:17;55209.00;;;-146.72;63.00
40994;BME280;26722;43.212;27.932;2023-02-28T09:45:50;55175.22;;;-146.72;61.91
40994;BME280;26722;43.212;27.932;2023-02-28T09:48:22;55183.66;;;-146.72;62.15
40994;BME280;26722;43.212;27.932;2023-02-28T09:50:52;55187.88;;;-146.72;63.42
40994;BME280;26722;43.212;27.932;2023-02-28T09:53:31;55187.88;;;-146.72;63.40
40994;BME280;26722;43.212;27.932;2023-02-28T10:03:43;55187.88;;;-146.72;62.63
40994;BME280;26722;43.212;27.932;2023-02-28T10:06:14;55198.44;;;-146.72;63.21
40994;BME280;26722;43.212;27.932;2023-02-28T10:09:05;55192.09;;;-146.72;63.33
40994;BME280;26722;43.212;27.932;2023-02-28T10:11:35;55181.53;;;-146.72;63.98
40994;BME280;26722;43.212;27.932;2023-02-28T10:14:10;55179.44;;;-146.72;63.03
40994;BME280;26722;43.212;27.932;2023-02-28T10:19:35;55175.22;;;-146.72;62.67
40994;BME280;26722;43.212;27.932;2023-02-28T10:25:15;55181.53;;;-146.72;62.62
40994;BME280;26722;43.212;27.932;2023-02-28T10:27:41;55200.53;;;-146.72;62.88
40994;BME280;26722;43.212;27.932;2023-02-28T10:30:09;55181.53;;;-146.72;63.07
40994;BME280;26722;43.212;27.932;2023-02-28T10:32:36;55175.22;;;-146.72;63.14
40994;BME280;26722;43.212;27.932;2023-02-28T10:37:44;55192.09;;;-146.72;63.22
40994;BME280;26722;43.212;27.932;2023-02-28T10:45:52;55196.31;;;-146.72;64.08
40994;BME280;26722;43.212;27.932;2023-02-28T10:58:28;55192.09;;;-146.72;64.16
40994;BME280;26722;43.212;27.932;2023-02-28T11:00:54;55196.31;;;-146.72;63.91
40994;BME280;26722;43.212;27.932;2023-02-28T11:03:34;55177.31;;;-146.72;63.98
40994;BME280;26722;43.212;27.932;2023-02-28T11:06:06;55164.66;;;-146.72;63.61
40994;BME280;26722;43.212;27.932;2023-02-28T11:08:33;55200.53;;;-146.72;63.69
40994;BME280;26722;43.212;27.932;2023-02-28T11:11:04;55204.75;;;-146.72;63.59
40994;BME280;26722;43.212;27.932;2023-02-28T11:13:36;55179.44;;;-146.72;63.42
40994;BME280;26722;43.212;27.932;2023-02-28T11:16:09;55177.31;;;-146.72;62.81
40994;BME280;26722;43.212;27.932;2023-02-28T11:21:08;55183.66;;;-146.72;62.21
40994;BME280;26722;43.212;27.932;2023-02-28T11:23:37;55175.22;;;-146.72;61.91
40994;BME280;26722;43.212;27.932;2023-02-28T11:26:05;55190.00;;;-146.72;62.34
40994;BME280;26722;43.212;27.932;2023-02-28T11:28:40;55173.09;;;-146.72;62.42
40994;BME280;26722;43.212;27.932;2023-02-28T11:33:54;55175.22;;;-146.72;62.95
40994;BME280;26722;43.212;27.932;2023-02-28T11:36:24;55185.75;;;-146.72;63.23
40994;BME280;26722;43.212;27.932;2023-02-28T11:38:50;55194.22;;;-146.72;62.85
40994;BME280;26722;43.212;27.932;2023-02-28T11:47:14;55177.31;;;-146.72;63.32
40994;BME280;26722;43.212;27.932;2023-02-28T11:55:24;55187.88;;;-146.72;62.83
40994;BME280;26722;43.212;27.932;2023-02-28T11:58:29;55192.09;;;-146.72;62.56
40994;BME280;26722;43.212;27.932;2023-02-28T12:03:31;55183.66;;;-146.72;61.94
40994;BME280;26722;43.212;27.932;2023-02-28T12:08:52;55187.88;;;-146.72;62.01
40994;BME280;26722;43.212;27.932;2023-02-28T12:19:31;55179.44;;;-146.72;61.97
40994;BME280;26722;43.212;27.932;2023-02-28T12:27:34;55204.75;;;-146.72;61.74
40994;BME280;26722;43.212;27.932;2023-02-28T12:30:08;55206.88;;;-146.72;62.37
40994;BME280;26722;43.212;27.932;2023-02-28T12:32:44;55200.53;;;-146.72;62.96
40994;BME280;26722;43.212;27.932;2023-02-28T12:40:29;55185.75;;;-146.72;63.28
40994;BME280;26722;43.212;27.932;2023-02-28T12:43:03;55202.66;;;-146.72;63.21
40994;BME280;26722;43.212;27.932;2023-02-28T12:45:55;55209.00;;;-146.72;63.56
40994;BME280;26722;43.212;27.932;2023-02-28T12:48:37;55206.88;;;-146.72;63.90
40994;BME280;26722;43.212;27.932;2023-02-28T12:51:06;55202.66;;;-146.72;63.72
40994;BME280;26722;43.212;27.932;2023-02-28T12:53:42;55192.09;;;-146.72;64.11
40994;BME280;26722;43.212;27.932;2023-02-28T13:01:57;55209.00;;;-146.72;65.78
40994;BME280;26722;43.212;27.932;2023-02-28T13:09:32;55206.88;;;-146.72;65.59
40994;BME280;26722;43.212;27.932;2023-02-28T13:11:58;55192.09;;;-146.72;65.24
40994;BME280;26722;43.212;27.932;2023-02-28T13:14:36;55200.53;;;-146.72;63.72
40994;BME280;26722;43.212;27.932;2023-02-28T13:25:13;55213.22;;;-146.72;65.31
40994;BME280;26722;43.212;27.932;2023-02-28T13:27:48;55196.31;;;-146.72;65.44
40994;BME280;26722;43.212;27.932;2023-02-28T13:33:35;55230.09;;;-146.72;65.86
40994;BME280;26722;43.212;27.932;2023-02-28T13:38:58;55200.53;;;-146.72;66.91
40994;BME280;26722;43.212;27.932;2023-02-28T13:46:28;55213.22;;;-146.72;66.80
40994;BME280;26722;43.212;27.932;2023-02-28T13:48:54;55238.53;;;-146.72;66.85
40994;BME280;26722;43.212;27.932;2023-02-28T13:51:43;55234.31;;;-146.72;66.69
40994;BME280;26722;43.212;27.932;2023-02-28T13:57:05;55232.22;;;-146.72;67.20
40994;BME280;26722;43.212;27.932;2023-02-28T14:07:29;55204.75;;;-146.72;67.90
40994;BME280;26722;43.212;27.932;2023-02-28T14:10:03;55230.09;;;-146.72;68.01
40994;BME280;26722;43.212;27.932;2023-02-28T14:15:46;55200.53;;;-146.72;67.67
40994;BME280;26722;43.212;27.932;2023-02-28T14:18:28;55219.53;;;-146.72;67.25
40994;BME280;26722;43.212;27.932;2023-02-28T14:21:00;55200.53;;;-146.72;67.00
40994;BME280;26722;43.212;27.932;2023-02-28T14:31:43;55213.22;;;-146.72;66.16
40994;BME280;26722;43.212;27.932;2023-02-28T14:37:00;55225.88;;;-146.72;65.90
40994;BME280;26722;43.212;27.932;2023-02-28T14:39:28;55221.66;;;-146.72;65.76
40994;BME280;26722;43.212;27.932;2023-02-28T14:41:58;55190.00;;;-146.72;66.41
40994;BME280;26722;43.212;27.932;2023-02-28T14:44:29;55192.09;;;-146.72;66.64
40994;BME280;26722;43.212;27.932;2023-02-28T14:47:00;55230.09;;;-146.72;66.46
40994;BME280;26722;43.212;27.932;2023-02-28T14:49:35;55223.78;;;-146.72;66.45
40994;BME280;26722;43.212;27.932;2023-02-28T14:52:25;55217.44;;;-146.72;66.56
40994;BME280;26722;43.212;27.932;2023-02-28T14:54:54;55228.00;;;-146.72;67.39
40994;BME280;26722;43.212;27.932;2023-02-28T14:57:32;55225.88;;;-146.72;67.67
40994;BME280;26722;43.212;27.932;2023-02-28T15:02:30;55206.88;;;-146.72;67.70
40994;BME280;26722;43.212;27.932;2023-02-28T15:05:01;55213.22;;;-146.72;67.85
40994;BME280;26722;43.212;27.932;2023-02-28T15:07:27;55221.66;;;-146.72;67.83
40994;BME280;26722;43.212;27.932;2023-02-28T15:10:26;55230.09;;;-146.72;68.25
40994;BME280;26722;43.212;27.932;2023-02-28T15:15:17;55221.66;;;-146.72;68.74
40994;BME280;26722;43.212;27.932;2023-02-28T15:17:50;55242.78;;;-146.72;69.08
40994;BME280;26722;43.212;27.932;2023-02-28T15:20:18;55213.22;;;-146.72;69.50